LNG Adamawa — ZCDM8 — position and weather

sailwx.info

Track history (hours):
 
Tides and Currents Weather Stations Pressure Air Temp Water Temp Dewpoint Dewpoint Depression Visibility Wind Speed Wind Dir Waves Ship Positions

LNG Adamawa

Last reported at 2017-Aug-28 12:02 UTC. Time now 2017-Sep-24 21:03 UTC.
Position N 28°02' W 016°24'.
Warning: this ship's position is 27 days out of date.

Type: Ship (hazmat cat A). MMSI: 310469000.

Date/timePositionNaut miles runAvg speedWind from/ knotsBaromVisibWave heightAir tempDewpointWater temp
2017-Aug-28 12:02N 28°02' W 016°24'113.1
2017-Aug-28 11:59N 28°02' W 016°24'612.5
2017-Aug-28 11:29N 28°08' W 016°21'23 0.8
2017-Aug-27 07:43N 28°29' W 016°11'0 1.2
2017-Aug-27 07:20N 28°29' W 016°11'4 3.3
2017-Aug-27 06:09N 28°27' W 016°08'2 6.8
2017-Aug-27 05:51N 28°26' W 016°06'4 7.4
2017-Aug-27 05:22N 28°24' W 016°02'410.0
2017-Aug-27 04:57N 28°22' W 015°58'9 7.8
2017-Aug-27 03:49N 28°14' W 016°02'5 9.5
2017-Aug-27 03:19N 28°10' W 016°05'4 9.1
2017-Aug-27 02:53N 28°07' W 016°08'12 9.0
2017-Aug-27 01:35N 27°58' W 016°16'1 9.2
2017-Aug-27 01:28N 27°57' W 016°17'14 9.1
2017-Aug-26 23:56N 27°43' W 016°20'13 9.1
2017-Aug-26 22:31N 27°31' W 016°18'1 9.1
2017-Aug-26 22:26N 27°30' W 016°18'4 9.3
2017-Aug-26 22:00N 27°26' W 016°18'5 9.0
2017-Aug-26 21:30N 27°21' W 016°17'10 6.9
2017-Aug-26 20:01N 27°13' W 016°11'1 6.3
2017-Aug-26 19:56N 27°12' W 016°11'4 6.1
2017-Aug-26 19:19N 27°09' W 016°08'3 0.3
2017-Aug-26 09:58N 27°08' W 016°11'3 6.3
2017-Aug-26 09:30N 27°09' W 016°08'1 2.5
2017-Aug-26 08:58N 27°08' W 016°07'16 6.9
2017-Aug-26 06:36N 26°55' W 016°18'1 6.8
2017-Aug-26 06:26N 26°54' W 016°19'5 6.7
2017-Aug-26 05:43N 26°50' W 016°22'3 6.5
2017-Aug-26 05:18N 26°48' W 016°23'22 6.6
2017-Aug-26 01:56N 26°29' W 016°36'8 6.7
2017-Aug-26 00:43N 26°22' W 016°41'10 6.8
2017-Aug-25 23:17N 26°15' W 016°48'30 3.1
2017-Aug-25 13:36N 26°44' W 016°43'1 6.7
2017-Aug-25 13:28N 26°45' W 016°43'9 0.7
2017-Aug-25 01:32N 26°46' W 016°53'0 6.8
2017-Aug-25 01:31N 26°46' W 016°53'3 6.8
2017-Aug-25 01:00N 26°42' W 016°54'6 0.3
2017-Aug-24 06:19N 26°43' W 016°47'5 5.1
2017-Aug-24 05:15N 26°37' W 016°47'4 5.6
2017-Aug-24 04:33N 26°33' W 016°47'13 5.5
2017-Aug-24 02:16N 26°21' W 016°46'1 5.5
2017-Aug-24 01:59N 26°19' W 016°46'3 5.5
2017-Aug-24 01:29N 26°17' W 016°46'46 2.9
2017-Aug-23 09:29N 25°36' W 016°23'5 7.7
2017-Aug-23 08:54N 25°39' W 016°20'10 7.9
2017-Aug-23 07:40N 25°46' W 016°13'2 8.1
2017-Aug-23 07:26N 25°48' W 016°12'14 7.6
2017-Aug-23 05:35N 26°02' W 016°10'31 7.0
2017-Aug-23 01:06N 26°33' W 016°05'9 6.9
2017-Aug-22 23:45N 26°42' W 016°02'2 7.1
2017-Aug-22 23:31N 26°43' W 016°02'6 7.0
2017-Aug-22 22:41N 26°49' W 016°01'2 7.0
2017-Aug-22 22:28N 26°51' W 016°01'3 7.1
2017-Aug-22 22:00N 26°54' W 016°01'4 7.0
2017-Aug-22 21:28N 26°58' W 016°01'4 7.0
2017-Aug-22 20:53N 27°02' W 016°02'4 7.2
2017-Aug-22 20:23N 27°05' W 016°02'3 7.4
2017-Aug-22 19:55N 27°09' W 016°02'4 7.3
2017-Aug-22 19:25N 27°12' W 016°03'3 2.9
2017-Aug-22 18:25N 27°09' W 016°03'3 6.0
2017-Aug-22 17:53N 27°06' W 016°03'2 5.8
2017-Aug-22 17:30N 27°04' W 016°03'12 6.2
2017-Aug-22 15:29N 26°52' W 016°05'69 1.6
2017-Aug-20 20:49N 27°58' W 016°28'512.4
2017-Aug-20 20:27N 28°01' W 016°25'812.3
2017-Aug-20 19:46N 28°08' W 016°20'512.4
2017-Aug-20 19:21N 28°13' W 016°17'612.5
2017-Aug-20 18:51N 28°19' W 016°14'512.3
2017-Aug-20 18:29N 28°23' W 016°12'612.3
2017-Aug-20 18:00N 28°28' W 016°09'2 4.0
2017-Aug-20 17:24N 28°28' W 016°06'3 8.0
2017-Aug-20 17:00N 28°26' W 016°03'5 9.8
2017-Aug-20 16:30N 28°22' W 015°60'5 9.8
2017-Aug-20 16:00N 28°18' W 015°57'810.5
2017-Aug-20 15:15N 28°12' W 016°02'310.6
2017-Aug-20 15:00N 28°10' W 016°04'510.5
2017-Aug-20 14:29N 28°06' W 016°08'610.1
2017-Aug-20 13:56N 28°02' W 016°12'8 9.9
2017-Aug-20 13:06N 27°55' W 016°18'110.1
2017-Aug-20 12:58N 27°54' W 016°19'510.1
2017-Aug-20 12:28N 27°50' W 016°23'2910.2
2017-Aug-20 09:35N 27°24' W 016°37'111.1
2017-Aug-20 09:30N 27°23' W 016°37'510.8
2017-Aug-20 09:00N 27°18' W 016°39'910.4
2017-Aug-20 08:09N 27°10' W 016°43'410.2
2017-Aug-20 07:48N 27°06' W 016°44'  
Track history (hours):
 
Tides and Currents Weather Stations Pressure Air Temp Water Temp Dewpoint Dewpoint Depression Visibility Wind Speed Wind Dir Waves Ship Positions

LNG Adamawa

Last reported at 2017-Aug-28 12:02 UTC. Time now 2017-Sep-24 21:03 UTC.
Position N 28°02' W 016°24'.
Warning: this ship's position is 27 days out of date.

Type: Ship (hazmat cat A). MMSI: 310469000.

Date/timePositionNaut miles runAvg speedWind from/ knotsBaromVisibWave heightAir tempDewpointWater temp
2017-Aug-28 12:02N 28°02' W 016°24'113.1
2017-Aug-28 11:59N 28°02' W 016°24'612.5
2017-Aug-28 11:29N 28°08' W 016°21'23 0.8
2017-Aug-27 07:43N 28°29' W 016°11'0 1.2
2017-Aug-27 07:20N 28°29' W 016°11'4 3.3
2017-Aug-27 06:09N 28°27' W 016°08'2 6.8
2017-Aug-27 05:51N 28°26' W 016°06'4 7.4
2017-Aug-27 05:22N 28°24' W 016°02'410.0
2017-Aug-27 04:57N 28°22' W 015°58'9 7.8
2017-Aug-27 03:49N 28°14' W 016°02'5 9.5
2017-Aug-27 03:19N 28°10' W 016°05'4 9.1
2017-Aug-27 02:53N 28°07' W 016°08'12 9.0
2017-Aug-27 01:35N 27°58' W 016°16'1 9.2
2017-Aug-27 01:28N 27°57' W 016°17'14 9.1
2017-Aug-26 23:56N 27°43' W 016°20'13 9.1
2017-Aug-26 22:31N 27°31' W 016°18'1 9.1
2017-Aug-26 22:26N 27°30' W 016°18'4 9.3
2017-Aug-26 22:00N 27°26' W 016°18'5 9.0
2017-Aug-26 21:30N 27°21' W 016°17'10 6.9
2017-Aug-26 20:01N 27°13' W 016°11'1 6.3
2017-Aug-26 19:56N 27°12' W 016°11'4 6.1
2017-Aug-26 19:19N 27°09' W 016°08'3 0.3
2017-Aug-26 09:58N 27°08' W 016°11'3 6.3
2017-Aug-26 09:30N 27°09' W 016°08'1 2.5
2017-Aug-26 08:58N 27°08' W 016°07'16 6.9
2017-Aug-26 06:36N 26°55' W 016°18'1 6.8
2017-Aug-26 06:26N 26°54' W 016°19'5 6.7
2017-Aug-26 05:43N 26°50' W 016°22'3 6.5
2017-Aug-26 05:18N 26°48' W 016°23'22 6.6
2017-Aug-26 01:56N 26°29' W 016°36'8 6.7
2017-Aug-26 00:43N 26°22' W 016°41'10 6.8
2017-Aug-25 23:17N 26°15' W 016°48'30 3.1
2017-Aug-25 13:36N 26°44' W 016°43'1 6.7
2017-Aug-25 13:28N 26°45' W 016°43'9 0.7
2017-Aug-25 01:32N 26°46' W 016°53'0 6.8
2017-Aug-25 01:31N 26°46' W 016°53'3 6.8
2017-Aug-25 01:00N 26°42' W 016°54'6 0.3
2017-Aug-24 06:19N 26°43' W 016°47'5 5.1
2017-Aug-24 05:15N 26°37' W 016°47'4 5.6
2017-Aug-24 04:33N 26°33' W 016°47'13 5.5
2017-Aug-24 02:16N 26°21' W 016°46'1 5.5
2017-Aug-24 01:59N 26°19' W 016°46'3 5.5
2017-Aug-24 01:29N 26°17' W 016°46'46 2.9
2017-Aug-23 09:29N 25°36' W 016°23'5 7.7
2017-Aug-23 08:54N 25°39' W 016°20'10 7.9
2017-Aug-23 07:40N 25°46' W 016°13'2 8.1
2017-Aug-23 07:26N 25°48' W 016°12'14 7.6
2017-Aug-23 05:35N 26°02' W 016°10'31 7.0
2017-Aug-23 01:06N 26°33' W 016°05'9 6.9
2017-Aug-22 23:45N 26°42' W 016°02'2 7.1
2017-Aug-22 23:31N 26°43' W 016°02'6 7.0
2017-Aug-22 22:41N 26°49' W 016°01'2 7.0
2017-Aug-22 22:28N 26°51' W 016°01'3 7.1
2017-Aug-22 22:00N 26°54' W 016°01'4 7.0
2017-Aug-22 21:28N 26°58' W 016°01'4 7.0
2017-Aug-22 20:53N 27°02' W 016°02'4 7.2
2017-Aug-22 20:23N 27°05' W 016°02'3 7.4
2017-Aug-22 19:55N 27°09' W 016°02'4 7.3
2017-Aug-22 19:25N 27°12' W 016°03'3 2.9
2017-Aug-22 18:25N 27°09' W 016°03'3 6.0
2017-Aug-22 17:53N 27°06' W 016°03'2 5.8
2017-Aug-22 17:30N 27°04' W 016°03'12 6.2
2017-Aug-22 15:29N 26°52' W 016°05'69 1.6
2017-Aug-20 20:49N 27°58' W 016°28'512.4
2017-Aug-20 20:27N 28°01' W 016°25'812.3
2017-Aug-20 19:46N 28°08' W 016°20'512.4
2017-Aug-20 19:21N 28°13' W 016°17'612.5
2017-Aug-20 18:51N 28°19' W 016°14'512.3
2017-Aug-20 18:29N 28°23' W 016°12'612.3
2017-Aug-20 18:00N 28°28' W 016°09'2 4.0
2017-Aug-20 17:24N 28°28' W 016°06'3 8.0
2017-Aug-20 17:00N 28°26' W 016°03'5 9.8
2017-Aug-20 16:30N 28°22' W 015°60'5 9.8
2017-Aug-20 16:00N 28°18' W 015°57'810.5
2017-Aug-20 15:15N 28°12' W 016°02'310.6
2017-Aug-20 15:00N 28°10' W 016°04'510.5
2017-Aug-20 14:29N 28°06' W 016°08'610.1
2017-Aug-20 13:56N 28°02' W 016°12'8 9.9
2017-Aug-20 13:06N 27°55' W 016°18'110.1
2017-Aug-20 12:58N 27°54' W 016°19'510.1
2017-Aug-20 12:28N 27°50' W 016°23'2910.2
2017-Aug-20 09:35N 27°24' W 016°37'111.1
2017-Aug-20 09:30N 27°23' W 016°37'510.8
2017-Aug-20 09:00N 27°18' W 016°39'910.4
2017-Aug-20 08:09N 27°10' W 016°43'410.2
2017-Aug-20 07:48N 27°06' W 016°44'  

Dump ship's entire track history